Time;durP1;ratioP1;P1;durP2;ratioP2;P2;SDS_P1;SDS_P2;PMS_P1;PMS_P2;Temp;Humidity;BMP_temperature;BMP_pressure;BME280_temperature;BME280_humidity;BME280_pressure;Samples;Min_cycle;Max_cycle;Signal;HPM_P1;HPM_P2
2024/01/16 00:02:07;;;;;;;9.70;4.10;;;;;;;17.86;45.12;99911.00;4898659;29;20830;-70
2024/01/16 00:04:33;;;;;;;6.73;3.60;;;;;;;17.91;44.54;99910.66;4898862;29;20207;-70
2024/01/16 00:06:58;;;;;;;8.63;3.67;;;;;;;17.83;44.92;99901.16;4914400;29;20463;-69
2024/01/16 00:09:24;;;;;;;8.37;4.17;;;;;;;17.87;45.14;99904.06;4914094;29;20303;-70
2024/01/16 00:11:49;;;;;;;14.63;4.33;;;;;;;17.80;45.12;99910.47;4897680;29;20660;-71
2024/01/16 00:14:15;;;;;;;9.10;4.37;;;;;;;17.83;44.83;99906.03;4916625;29;20216;-70
2024/01/16 00:16:45;;;;;;;8.57;4.10;;;;;;;17.82;44.85;99905.22;4910211;29;20219;-70
2024/01/16 00:19:11;;;;;;;11.57;4.20;;;;;;;17.80;45.24;99907.63;4931396;29;20203;-70
2024/01/16 00:21:40;;;;;;;7.60;3.63;;;;;;;17.84;45.23;99899.09;4913494;29;20514;-69
2024/01/16 00:24:06;;;;;;;6.67;3.60;;;;;;;17.80;45.27;99898.25;4895970;29;20467;-69
2024/01/16 00:26:32;;;;;;;8.37;3.90;;;;;;;17.77;45.60;99897.00;4910579;29;20468;-69
2024/01/16 00:28:57;;;;;;;6.30;3.57;;;;;;;17.81;45.52;99900.69;4895264;29;20467;-69
2024/01/16 00:31:23;;;;;;;11.03;4.00;;;;;;;17.76;45.28;99898.19;4882963;29;20218;-72
2024/01/16 00:33:48;;;;;;;8.33;4.00;;;;;;;17.75;45.70;99901.44;4908235;29;20231;-69
2024/01/16 00:36:14;;;;;;;5.63;3.43;;;;;;;17.77;45.23;99899.84;4896718;29;20216;-71
2024/01/16 00:38:40;;;;;;;9.77;3.40;;;;;;;17.74;45.87;99908.34;4911523;29;20678;-69
2024/01/16 00:41:06;;;;;;;5.43;3.57;;;;;;;17.73;45.81;99907.53;4911309;29;20448;-70
2024/01/16 00:43:32;;;;;;;7.67;4.00;;;;;;;17.79;46.29;99897.41;4884595;29;20219;-70
2024/01/16 00:45:57;;;;;;;7.03;3.40;;;;;;;17.68;46.23;99901.31;4910390;29;20452;-69
2024/01/16 00:48:23;;;;;;;7.23;3.67;;;;;;;17.69;46.02;99912.38;4910875;29;20204;-72
2024/01/16 00:50:49;;;;;;;8.30;3.20;;;;;;;17.68;46.32;99902.16;4908739;29;20242;-69
2024/01/16 00:53:16;;;;;;;6.77;3.27;;;;;;;17.69;45.72;99903.78;4914399;29;20227;-71
2024/01/16 00:55:41;;;;;;;6.93;3.40;;;;;;;17.70;45.94;99907.50;4895619;29;20262;-69
2024/01/16 00:58:07;;;;;;;9.07;4.47;;;;;;;17.70;46.08;99904.63;4914127;29;20930;-69
2024/01/16 01:00:33;;;;;;;6.60;3.50;;;;;;;17.71;46.51;99906.28;4930119;29;20207;-69
2024/01/16 01:02:59;;;;;;;7.53;3.67;;;;;;;17.65;46.20;99902.91;4914368;29;20212;-70
2024/01/16 01:05:28;;;;;;;6.80;3.70;;;;;;;17.65;46.63;99899.25;4924459;29;20468;-72
2024/01/16 01:07:55;;;;;;;7.33;3.60;;;;;;;17.67;46.23;99903.38;4913557;29;20234;-69
2024/01/16 01:10:20;;;;;;;4.57;2.90;;;;;;;17.68;46.16;99907.88;4918305;29;20831;-69
2024/01/16 01:12:45;;;;;;;5.80;2.90;;;;;;;17.63;45.77;99911.06;4916362;29;20481;-70
2024/01/16 01:15:11;;;;;;;7.47;3.67;;;;;;;17.64;46.35;99911.84;4900816;29;20292;-69
2024/01/16 01:17:37;;;;;;;6.97;3.00;;;;;;;17.66;45.71;99912.31;4883377;29;20828;-69
2024/01/16 01:20:03;;;;;;;6.67;3.50;;;;;;;17.66;46.16;99915.16;4885646;29;20467;-70
2024/01/16 01:22:28;;;;;;;5.80;3.13;;;;;;;17.64;46.14;99909.84;4914601;29;20212;-68
2024/01/16 01:24:54;;;;;;;6.17;3.30;;;;;;;17.63;46.38;99913.06;4904157;29;20271;-73
2024/01/16 01:27:19;;;;;;;6.80;3.23;;;;;;;17.67;46.07;99916.81;4926752;29;20297;-73
2024/01/16 01:29:45;;;;;;;6.23;3.10;;;;;;;17.68;46.47;99919.28;4919444;29;20473;-73
2024/01/16 01:32:11;;;;;;;6.57;3.70;;;;;;;17.66;45.95;99915.16;4898365;29;20883;-74
2024/01/16 01:34:38;;;;;;;6.40;3.20;;;;;;;17.65;46.39;99917.19;4921347;29;20510;-74
2024/01/16 01:37:03;;;;;;;6.43;3.17;;;;;;;17.64;46.14;99918.41;4933199;29;20206;-74
2024/01/16 01:39:30;;;;;;;6.90;3.50;;;;;;;17.59;46.59;99927.28;4906188;29;20450;-74
2024/01/16 01:41:55;;;;;;;6.60;3.60;;;;;;;17.63;46.30;99928.19;4884831;29;20242;-75
2024/01/16 01:44:20;;;;;;;7.40;3.20;;;;;;;17.63;46.40;99928.19;4908448;29;21174;-75
2024/01/16 01:46:46;;;;;;;6.07;3.70;;;;;;;17.60;47.20;99928.94;4946675;29;20211;-74
2024/01/16 01:49:13;;;;;;;7.10;3.10;;;;;;;17.55;46.71;99925.59;4935857;29;20739;-74
2024/01/16 01:51:39;;;;;;;5.87;3.50;;;;;;;17.55;46.86;99932.13;4909366;29;20359;-75
2024/01/16 01:54:04;;;;;;;6.07;2.97;;;;;;;17.62;46.89;99934.25;4914340;29;20487;-76
2024/01/16 01:56:29;;;;;;;4.93;3.00;;;;;;;17.62;46.53;99937.13;4897639;29;20632;-74
2024/01/16 01:58:56;;;;;;;5.33;2.93;;;;;;;17.57;47.44;99940.31;4900294;29;20277;-74
2024/01/16 02:01:22;;;;;;;5.40;2.90;;;;;;;17.53;46.82;99942.28;4919813;29;20266;-73
2024/01/16 02:03:48;;;;;;;4.37;2.80;;;;;;;17.59;46.35;99938.72;4888978;29;20820;-73
2024/01/16 02:06:15;;;;;;;6.00;3.60;;;;;;;17.55;46.99;99937.81;4902694;29;20743;-72
2024/01/16 02:08:40;;;;;;;6.67;3.23;;;;;;;17.62;47.03;99934.25;4936071;29;20203;-72
2024/01/16 02:11:06;;;;;;;7.30;3.30;;;;;;;17.58;46.61;99925.66;4894278;29;20974;-73
2024/01/16 02:13:31;;;;;;;4.37;2.80;;;;;;;17.59;46.70;99926.47;4914295;29;20243;-72
2024/01/16 02:15:57;;;;;;;6.00;2.53;;;;;;;17.54;46.76;99924.75;4932079;29;20660;-72
2024/01/16 02:18:22;;;;;;;6.80;2.90;;;;;;;17.60;46.40;99928.13;4896999;29;20215;-72
2024/01/16 02:20:47;;;;;;;5.37;3.03;;;;;;;17.60;46.83;99925.28;4915411;29;20263;-72
2024/01/16 02:23:16;;;;;;;4.07;2.77;;;;;;;17.57;46.49;99926.03;4915127;29;20199;-73
2024/01/16 02:25:42;;;;;;;6.40;3.30;;;;;;;17.54;46.98;99930.47;4914754;29;20215;-72
2024/01/16 02:28:07;;;;;;;6.17;3.07;;;;;;;17.59;46.25;99921.59;4896959;29;20466;-72
2024/01/16 02:30:33;;;;;;;6.57;2.97;;;;;;;17.56;46.24;99930.09;4915021;29;20224;-72
2024/01/16 02:32:59;;;;;;;4.97;2.60;;;;;;;17.55;47.02;99926.41;4916383;29;20287;-72
2024/01/16 02:35:24;;;;;;;4.70;2.90;;;;;;;17.53;46.49;99930.84;4902989;29;20261;-73
2024/01/16 02:37:50;;;;;;;5.50;3.10;;;;;;;17.54;46.71;99924.75;4918360;29;20207;-72
2024/01/16 02:40:15;;;;;;;6.43;3.20;;;;;;;17.54;46.87;99923.94;4918128;29;20203;-73
2024/01/16 02:42:40;;;;;;;5.00;2.60;;;;;;;17.51;46.68;99922.66;4937259;29;20211;-72
2024/01/16 02:45:06;;;;;;;6.20;2.90;;;;;;;17.47;47.22;99930.38;4915672;29;20203;-72
2024/01/16 02:47:32;;;;;;;6.10;3.13;;;;;;;17.47;47.36;99930.38;4915349;29;20235;-73
2024/01/16 02:49:58;;;;;;;5.13;2.87;;;;;;;17.47;46.93;99930.38;4940978;28;20609;-73
2024/01/16 02:52:24;;;;;;;5.60;3.27;;;;;;;17.53;47.04;99922.28;4966125;28;20704;-73
2024/01/16 02:54:49;;;;;;;4.20;3.00;;;;;;;17.52;47.47;99914.94;4926158;28;20465;-73
2024/01/16 02:57:15;;;;;;;4.90;2.80;;;;;;;17.49;47.30;99927.09;4953659;28;20202;-73
2024/01/16 02:59:43;;;;;;;4.33;2.60;;;;;;;17.50;46.87;99928.78;4934257;28;20215;-72
2024/01/16 03:02:09;;;;;;;4.60;3.03;;;;;;;17.51;47.30;99930.41;4937793;28;20206;-73
2024/01/16 03:04:35;;;;;;;6.73;3.30;;;;;;;17.46;47.09;99936.44;4953630;28;20449;-73
2024/01/16 03:07:00;;;;;;;6.60;3.10;;;;;;;17.49;47.02;99938.53;4921811;28;20960;-72
2024/01/16 03:09:26;;;;;;;4.70;2.90;;;;;;;17.47;47.18;99941.78;4949143;28;20208;-72
2024/01/16 03:11:52;;;;;;;4.43;3.00;;;;;;;17.52;47.13;99943.47;4953152;28;20205;-72
2024/01/16 03:14:18;;;;;;;4.50;2.87;;;;;;;17.50;46.83;99945.91;4949771;28;20582;-73
2024/01/16 03:16:44;;;;;;;5.77;2.70;;;;;;;17.45;47.05;99943.38;4968703;28;20468;-74
2024/01/16 03:19:09;;;;;;;5.47;2.90;;;;;;;17.46;47.57;99950.72;4937647;28;20480;-74
2024/01/16 03:21:35;;;;;;;3.90;2.60;;;;;;;17.45;46.92;99952.75;4948535;28;20225;-74
2024/01/16 03:24:00;;;;;;;4.60;2.97;;;;;;;17.46;47.25;99947.88;4965726;28;20204;-74
2024/01/16 03:26:26;;;;;;;6.03;2.53;;;;;;;17.48;47.20;99949.13;4954844;28;20209;-74
2024/01/16 03:28:51;;;;;;;6.80;3.00;;;;;;;17.41;47.57;99943.28;4949003;28;20206;-74
2024/01/16 03:31:19;;;;;;;4.70;2.70;;;;;;;17.44;46.88;99936.00;4935650;28;20213;-74
2024/01/16 03:33:45;;;;;;;4.93;2.80;;;;;;;17.45;47.33;99935.63;4968011;28;20244;-74
2024/01/16 03:36:12;;;;;;;4.33;2.77;;;;;;;17.40;47.69;99947.34;4967295;28;20450;-74
2024/01/16 03:38:37;;;;;;;4.20;2.33;;;;;;;17.46;47.18;99933.59;4925865;28;20963;-74
2024/01/16 03:41:03;;;;;;;4.23;2.90;;;;;;;17.42;47.33;99939.25;4933034;29;20458;-74
2024/01/16 03:43:29;;;;;;;4.00;2.60;;;;;;;17.45;47.19;99932.75;4929436;28;20213;-74
2024/01/16 03:45:58;;;;;;;4.90;2.80;;;;;;;17.46;47.03;99939.31;4951445;28;20210;-74
2024/01/16 03:48:23;;;;;;;3.83;2.43;;;;;;;17.44;47.39;99938.84;4949941;28;20445;-74
2024/01/16 03:50:48;;;;;;;4.70;2.80;;;;;;;17.44;46.95;99939.69;4932930;29;20554;-74
2024/01/16 03:53:14;;;;;;;4.40;2.93;;;;;;;17.43;47.16;99945.75;4933603;29;20218;-74
2024/01/16 03:55:39;;;;;;;3.87;2.40;;;;;;;17.46;46.94;99945.81;4926629;28;20246;-74
2024/01/16 03:58:05;;;;;;;5.00;3.07;;;;;;;17.45;47.21;99943.38;4929356;29;20643;-74
2024/01/16 04:00:30;;;;;;;5.03;2.73;;;;;;;17.47;46.77;99938.94;4935509;29;20562;-74
2024/01/16 04:02:56;;;;;;;4.33;2.60;;;;;;;17.42;47.13;99939.25;4929911;29;20195;-74
2024/01/16 04:05:21;;;;;;;8.63;3.00;;;;;;;17.43;47.35;99943.75;4916086;28;20901;-74
2024/01/16 04:07:47;;;;;;;6.30;2.70;;;;;;;17.41;47.21;99936.78;4950842;28;20258;-74
2024/01/16 04:10:12;;;;;;;5.63;2.90;;;;;;;17.41;47.12;99937.59;4951842;28;20674;-74
2024/01/16 04:12:38;;;;;;;4.07;2.37;;;;;;;17.45;47.49;99931.97;4931709;29;20226;-74
2024/01/16 04:15:04;;;;;;;3.90;2.50;;;;;;;17.45;47.17;99918.50;4914240;29;20218;-74
2024/01/16 04:17:29;;;;;;;4.23;2.20;;;;;;;17.45;46.99;99929.91;4928675;29;20223;-74
2024/01/16 04:19:54;;;;;;;4.60;2.63;;;;;;;17.40;47.34;99924.53;4900148;28;20223;-74
2024/01/16 04:22:20;;;;;;;4.03;2.80;;;;;;;17.40;47.49;99930.22;4932131;29;20210;-76
2024/01/16 04:24:46;;;;;;;3.70;2.70;;;;;;;17.44;47.73;99918.88;4948188;28;20203;-70
2024/01/16 04:27:12;;;;;;;4.40;2.70;;;;;;;17.41;47.28;99926.16;4944049;28;20214;-76
2024/01/16 04:29:37;;;;;;;4.53;2.60;;;;;;;17.44;47.21;99930.28;4932308;29;20490;-76
2024/01/16 04:32:04;;;;;;;5.73;2.60;;;;;;;17.46;47.43;99927.91;4953829;28;20194;-76
2024/01/16 04:34:29;;;;;;;3.90;2.27;;;;;;;17.41;47.28;99926.16;4945140;28;20235;-76
2024/01/16 04:36:54;;;;;;;3.97;2.33;;;;;;;17.42;47.06;99921.31;4932308;29;20509;-76
2024/01/16 04:39:22;;;;;;;5.47;2.53;;;;;;;17.45;47.34;99931.97;4949145;29;20199;-76
2024/01/16 04:41:48;;;;;;;5.67;3.40;;;;;;;17.39;47.08;99925.75;4933316;29;20203;-76
2024/01/16 04:44:14;;;;;;;4.30;2.43;;;;;;;17.41;47.03;99911.91;4920362;29;20448;-75
2024/01/16 04:46:39;;;;;;;4.80;2.73;;;;;;;17.47;46.85;99912.41;4936353;29;21344;-76
2024/01/16 04:49:05;;;;;;;4.90;3.00;;;;;;;17.48;46.94;99908.34;4952567;28;20206;-76
2024/01/16 04:51:30;;;;;;;5.10;3.07;;;;;;;17.41;47.17;99908.25;4933336;29;20250;-76
2024/01/16 04:53:56;;;;;;;5.30;3.10;;;;;;;17.39;47.29;99905.75;4917733;29;20279;-75
2024/01/16 04:56:21;;;;;;;3.90;2.70;;;;;;;17.42;46.99;99902.16;4902722;29;20253;-76
2024/01/16 04:58:46;;;;;;;4.03;2.50;;;;;;;17.42;47.38;99887.06;4898149;29;20222;-76
2024/01/16 05:01:12;;;;;;;5.03;3.00;;;;;;;17.44;47.68;99888.31;4917449;29;20215;-76
2024/01/16 05:03:38;;;;;;;4.50;2.83;;;;;;;17.40;47.58;99890.28;4918043;29;20200;-76
2024/01/16 05:06:03;;;;;;;5.27;2.93;;;;;;;17.41;47.20;99886.22;4916438;29;20443;-76
2024/01/16 05:08:30;;;;;;;5.57;3.37;;;;;;;17.40;47.52;99890.28;4929440;29;20207;-76
2024/01/16 05:10:56;;;;;;;4.30;3.10;;;;;;;17.39;47.40;99877.22;4933179;29;20214;-76
2024/01/16 05:13:21;;;;;;;4.57;2.77;;;;;;;17.43;47.33;99878.13;4916420;29;20478;-75
2024/01/16 05:15:47;;;;;;;3.97;2.47;;;;;;;17.41;47.41;99863.38;4915446;29;20226;-76
2024/01/16 05:18:12;;;;;;;3.40;2.50;;;;;;;17.47;47.22;99863.91;4915726;29;20686;-76
2024/01/16 05:20:38;;;;;;;5.60;2.70;;;;;;;17.41;47.28;99860.53;4919297;29;20314;-75
2024/01/16 05:23:04;;;;;;;4.50;2.83;;;;;;;17.45;47.05;99854.91;4900809;29;20872;-74
2024/01/16 05:25:29;;;;;;;3.83;2.50;;;;;;;17.41;46.78;99851.19;4917375;29;20212;-76
2024/01/16 05:27:55;;;;;;;3.90;2.73;;;;;;;17.41;47.41;99857.69;4897576;29;20470;-76
2024/01/16 05:30:21;;;;;;;4.70;3.10;;;;;;;17.47;46.94;99843.91;4917143;29;20203;-76
2024/01/16 05:32:46;;;;;;;4.97;2.90;;;;;;;17.43;47.50;99849.59;4886028;29;20276;-76
2024/01/16 05:35:12;;;;;;;4.33;2.57;;;;;;;17.48;47.56;99851.28;4895216;29;20201;-74
2024/01/16 05:37:37;;;;;;;4.23;2.87;;;;;;;17.45;46.96;99847.16;4897678;29;21066;-74
2024/01/16 05:40:03;;;;;;;4.27;2.50;;;;;;;17.47;47.02;99846.78;4913919;29;20233;-74
2024/01/16 05:42:29;;;;;;;7.37;3.10;;;;;;;17.47;46.85;99849.63;4902525;29;20206;-74
2024/01/16 05:44:55;;;;;;;5.03;3.10;;;;;;;17.47;47.06;99859.03;4941272;29;20458;-74
2024/01/16 05:47:20;;;;;;;5.03;2.70;;;;;;;17.43;47.61;99861.00;4920372;29;20523;-74
2024/01/16 05:49:45;;;;;;;4.03;2.73;;;;;;;17.46;47.25;99848.78;4919252;29;20203;-74
2024/01/16 05:52:11;;;;;;;4.83;2.93;;;;;;;17.44;47.15;99858.94;4916008;29;20203;-75
2024/01/16 05:54:36;;;;;;;4.60;2.60;;;;;;;17.49;47.10;99852.91;4934946;29;20259;-74
2024/01/16 05:57:02;;;;;;;4.70;2.80;;;;;;;17.49;47.06;99853.75;4934579;29;20195;-74
2024/01/16 05:59:28;;;;;;;4.20;2.60;;;;;;;17.48;47.48;99852.09;4919128;29;20200;-75
2024/01/16 06:01:53;;;;;;;5.53;3.30;;;;;;;17.43;47.05;99848.75;4921871;28;20198;-74
2024/01/16 06:04:19;;;;;;;4.20;2.67;;;;;;;17.45;47.28;99846.34;4929905;28;20449;-74
2024/01/16 06:06:46;;;;;;;4.73;2.83;;;;;;;17.45;47.54;99844.31;4945054;28;20203;-74
2024/01/16 06:09:13;;;;;;;5.27;2.80;;;;;;;17.49;47.34;99844.34;4934771;29;20239;-74
2024/01/16 06:11:40;;;;;;;5.40;3.03;;;;;;;17.43;46.95;99846.72;4946245;28;20450;-74
2024/01/16 06:14:06;;;;;;;4.90;2.80;;;;;;;17.43;47.30;99848.75;4906644;29;20489;-74
2024/01/16 06:16:32;;;;;;;3.83;2.53;;;;;;;17.47;47.43;99855.34;4933560;29;20447;-74
2024/01/16 06:18:57;;;;;;;3.57;2.40;;;;;;;17.43;47.44;99846.72;4945774;29;20463;-74
2024/01/16 06:21:23;;;;;;;5.40;2.73;;;;;;;17.44;47.13;99848.38;4931505;29;20211;-73
2024/01/16 06:23:49;;;;;;;3.10;2.17;;;;;;;17.41;48.14;99856.88;4900993;29;20224;-74
2024/01/16 06:26:15;;;;;;;4.30;2.83;;;;;;;17.43;47.38;99857.31;4930100;29;20203;-74
2024/01/16 06:28:42;;;;;;;3.67;2.30;;;;;;;17.39;47.89;99851.56;4911359;29;20471;-74
2024/01/16 06:31:08;;;;;;;4.30;2.43;;;;;;;17.46;47.72;99860.22;4941868;28;20211;-74
2024/01/16 06:33:34;;;;;;;6.00;2.87;;;;;;;17.53;46.36;99856.66;4934573;29;20474;-74
2024/01/16 06:35:59;;;;;;;4.37;2.80;;;;;;;17.50;47.49;99857.44;4918676;29;20942;-74
2024/01/16 06:38:25;;;;;;;4.60;2.63;;;;;;;17.46;46.89;99857.34;4904447;29;20218;-74
2024/01/16 06:40:50;;;;;;;4.53;2.87;;;;;;;17.44;47.48;99853.25;4934411;29;20194;-75
2024/01/16 06:43:16;;;;;;;5.80;2.80;;;;;;;17.48;47.12;99852.09;4934151;28;20199;-74
2024/01/16 06:45:44;;;;;;;3.70;2.53;;;;;;;17.55;46.89;99846.50;4913145;29;20215;-70
2024/01/16 06:48:10;;;;;;;4.70;2.90;;;;;;;17.49;46.91;99845.19;4883845;29;20215;-71
2024/01/16 06:50:35;;;;;;;4.53;2.33;;;;;;;17.49;47.05;99848.03;4924995;29;20521;-69
2024/01/16 06:53:01;;;;;;;4.60;2.63;;;;;;;17.47;47.05;99839.06;4931660;29;20467;-70
2024/01/16 06:55:27;;;;;;;4.10;2.40;;;;;;;17.47;47.04;99835.38;4912816;29;20271;-73
2024/01/16 06:57:52;;;;;;;4.43;2.97;;;;;;;17.51;47.07;99847.66;4914965;29;20200;-72
2024/01/16 07:00:18;;;;;;;4.97;2.90;;;;;;;17.51;46.83;99839.91;4913784;29;20648;-72
2024/01/16 07:02:43;;;;;;;3.50;2.43;;;;;;;17.59;46.83;99846.53;4897582;29;20672;-72
2024/01/16 07:05:10;;;;;;;5.53;3.10;;;;;;;17.50;47.45;99848.88;4913876;29;20200;-72
2024/01/16 07:07:36;;;;;;;4.17;2.87;;;;;;;17.43;47.96;99843.03;4913014;29;20283;-73
2024/01/16 07:10:02;;;;;;;4.07;2.57;;;;;;;17.48;47.53;99839.84;4909605;29;20474;-73
2024/01/16 07:12:27;;;;;;;5.00;2.90;;;;;;;17.48;47.65;99831.28;4929048;29;20210;-72
2024/01/16 07:14:53;;;;;;;4.63;2.30;;;;;;;17.53;46.69;99831.78;4897870;29;20440;-73
2024/01/16 07:17:18;;;;;;;3.70;2.60;;;;;;;17.46;47.66;99837.38;4897229;29;20260;-73
2024/01/16 07:19:44;;;;;;;5.03;3.03;;;;;;;17.49;47.42;99844.34;4896513;29;20212;-72
2024/01/16 07:22:09;;;;;;;3.97;2.60;;;;;;;17.46;47.48;99843.09;4909748;29;20315;-72
2024/01/16 07:24:35;;;;;;;3.93;2.27;;;;;;;17.45;46.99;99844.31;4896894;29;20200;-73
2024/01/16 07:27:00;;;;;;;6.20;2.70;;;;;;;17.49;47.34;99833.78;4897858;29;20199;-73
2024/01/16 07:29:25;;;;;;;4.13;2.40;;;;;;;17.51;47.57;99834.19;4894914;29;20211;-72
2024/01/16 07:31:52;;;;;;;5.00;2.83;;;;;;;17.49;47.13;99842.31;4913291;29;20260;-73
2024/01/16 07:34:21;;;;;;;4.50;2.70;;;;;;;17.51;47.10;99831.34;4885836;29;20215;-73
2024/01/16 07:36:47;;;;;;;5.50;2.87;;;;;;;17.47;47.17;99836.19;4929708;29;20506;-73
2024/01/16 07:39:12;;;;;;;3.50;2.40;;;;;;;17.45;47.15;99840.66;4930340;29;20810;-73
2024/01/16 07:41:38;;;;;;;3.83;2.30;;;;;;;17.48;47.35;99834.16;4913148;29;20680;-73
2024/01/16 07:44:03;;;;;;;3.40;2.20;;;;;;;17.45;47.54;99843.50;4929874;29;20243;-72
2024/01/16 07:46:29;;;;;;;4.60;2.90;;;;;;;17.51;47.19;99839.91;4918653;29;20214;-72
2024/01/16 07:48:54;;;;;;;3.70;2.53;;;;;;;17.45;47.23;99844.31;4917227;29;20946;-72
2024/01/16 07:51:19;;;;;;;4.30;2.50;;;;;;;17.48;47.66;99848.41;4916212;29;20602;-73
2024/01/16 07:53:45;;;;;;;3.73;2.50;;;;;;;17.44;47.64;99851.22;4917070;29;20774;-72
2024/01/16 07:56:11;;;;;;;5.20;2.77;;;;;;;17.47;47.44;99844.75;4914988;29;20450;-72
2024/01/16 07:58:37;;;;;;;3.93;2.67;;;;;;;17.45;47.78;99846.34;4913714;29;20591;-73
2024/01/16 08:01:03;;;;;;;4.33;3.13;;;;;;;17.48;47.26;99840.69;4904724;29;20212;-73
2024/01/16 08:03:28;;;;;;;4.17;2.60;;;;;;;17.51;47.08;99845.59;4894490;29;20784;-73
2024/01/16 08:05:53;;;;;;;3.20;2.30;;;;;;;17.55;47.10;99849.34;4896508;29;20803;-74
2024/01/16 08:08:19;;;;;;;4.33;2.40;;;;;;;17.48;47.21;99849.25;4901212;29;20663;-74
2024/01/16 08:10:44;;;;;;;5.33;2.73;;;;;;;17.52;47.03;99857.84;4911761;29;20218;-75
2024/01/16 08:13:10;;;;;;;3.37;2.50;;;;;;;17.54;47.44;99856.25;4930877;29;20575;-74
2024/01/16 08:15:36;;;;;;;4.37;2.57;;;;;;;17.56;47.14;99853.84;4913939;29;20283;-75
2024/01/16 08:18:02;;;;;;;6.70;2.90;;;;;;;17.52;47.30;99852.16;4908888;29;20208;-74
2024/01/16 08:20:27;;;;;;;4.40;2.90;;;;;;;17.54;47.04;99853.41;4894029;29;20459;-74
2024/01/16 08:22:53;;;;;;;3.87;2.40;;;;;;;17.56;47.65;99859.53;4916432;29;20219;-74
2024/01/16 08:25:18;;;;;;;4.17;2.37;;;;;;;17.54;47.11;99855.44;4922387;29;20305;-75
2024/01/16 08:27:44;;;;;;;3.97;2.67;;;;;;;17.52;47.30;99861.56;4912944;29;20206;-74
2024/01/16 08:30:11;;;;;;;5.17;2.67;;;;;;;17.54;47.18;99867.69;4898131;29;20207;-74
2024/01/16 08:32:36;;;;;;;3.57;2.23;;;;;;;17.62;46.80;99860.88;4909488;29;20216;-74
2024/01/16 08:35:02;;;;;;;3.50;2.30;;;;;;;17.55;47.23;99863.63;4910321;29;20475;-74
2024/01/16 08:37:28;;;;;;;4.90;2.67;;;;;;;17.56;47.67;99873.81;4894531;29;20244;-74
2024/01/16 08:39:53;;;;;;;4.43;2.80;;;;;;;17.54;47.67;99869.69;4901352;29;20463;-74
2024/01/16 08:42:19;;;;;;;4.57;2.60;;;;;;;17.54;47.18;99866.84;4923368;29;20211;-75
2024/01/16 08:44:44;;;;;;;4.97;3.00;;;;;;;17.60;47.40;99863.28;4906895;29;20292;-75
2024/01/16 08:47:10;;;;;;;4.03;2.60;;;;;;;17.55;46.99;99869.31;4895314;28;20576;-75
2024/01/16 08:49:35;;;;;;;4.63;2.93;;;;;;;17.60;47.09;99866.13;4934360;28;20263;-75
2024/01/16 08:52:02;;;;;;;11.03;3.53;;;;;;;17.49;47.26;99861.47;4936225;28;20237;-74
2024/01/16 08:54:27;;;;;;;5.50;3.53;;;;;;;17.36;45.64;99871.44;4949677;28;20237;-75
2024/01/16 08:56:53;;;;;;;7.23;3.60;;;;;;;17.43;46.01;99878.13;4944732;29;20450;-74
2024/01/16 08:59:18;;;;;;;5.80;3.60;;;;;;;17.50;45.74;99872.50;4915635;29;20308;-74
2024/01/16 09:01:44;;;;;;;8.53;4.23;;;;;;;17.45;45.82;99869.97;4942869;28;20222;-75
2024/01/16 09:04:09;;;;;;;7.57;4.13;;;;;;;17.47;45.80;99867.59;4928088;29;20711;-74
2024/01/16 09:06:35;;;;;;;8.07;3.63;;;;;;;17.56;45.56;99864.44;4915204;29;20207;-74
2024/01/16 09:09:00;;;;;;;5.43;3.50;;;;;;;17.51;45.90;99868.44;4932015;29;20215;-74
2024/01/16 09:11:26;;;;;;;6.57;3.63;;;;;;;17.51;46.23;99867.63;4945938;29;20215;-74
2024/01/16 09:13:51;;;;;;;6.10;3.43;;;;;;;17.59;46.22;99857.94;4917050;29;20698;-75
2024/01/16 09:16:17;;;;;;;6.23;3.70;;;;;;;17.53;45.89;99857.47;4930397;29;20210;-74
2024/01/16 09:18:42;;;;;;;9.90;3.50;;;;;;;17.55;46.69;99857.09;4917158;29;20218;-75
2024/01/16 09:21:08;;;;;;;4.80;3.20;;;;;;;17.59;45.76;99855.09;4934240;28;20207;-74
2024/01/16 09:23:33;;;;;;;5.67;3.60;;;;;;;17.60;46.17;99857.56;4932484;29;20199;-74
2024/01/16 09:25:59;;;;;;;5.20;3.40;;;;;;;17.53;46.18;99860.34;4922612;28;20215;-74
2024/01/16 09:28:25;;;;;;;7.83;3.47;;;;;;;17.59;46.06;99853.09;4949404;28;20754;-74
2024/01/16 09:30:50;;;;;;;5.87;3.20;;;;;;;17.57;46.26;99855.50;4943808;28;20203;-74
2024/01/16 09:33:16;;;;;;;6.57;3.93;;;;;;;17.62;45.71;99862.91;4916365;29;20738;-74
2024/01/16 09:35:42;;;;;;;6.07;3.70;;;;;;;17.58;46.01;99854.28;4916316;29;20264;-74
2024/01/16 09:38:07;;;;;;;5.07;3.50;;;;;;;17.54;46.55;99856.25;4933990;29;20519;-74
2024/01/16 09:40:33;;;;;;;5.27;3.50;;;;;;;17.57;45.97;99855.50;4933074;29;20255;-74
2024/01/16 09:42:59;;;;;;;7.00;4.00;;;;;;;17.67;46.19;99859.72;4921573;28;20241;-74
2024/01/16 09:45:24;;;;;;;4.83;3.20;;;;;;;17.60;46.49;99853.91;4919511;29;20213;-74
2024/01/16 09:47:51;;;;;;;4.60;3.20;;;;;;;17.57;46.44;99855.50;4935122;29;20210;-74
2024/01/16 09:50:19;;;;;;;5.77;3.33;;;;;;;17.57;46.61;99851.81;4924830;29;20242;-75
2024/01/16 09:52:48;;;;;;;4.90;3.03;;;;;;;17.57;47.05;99846.09;4916916;29;20504;-74
2024/01/16 09:55:14;;;;;;;4.73;2.77;;;;;;;17.59;46.40;99846.53;4912574;29;20456;-74
2024/01/16 09:57:40;;;;;;;6.13;3.73;;;;;;;17.56;46.37;99859.53;4912760;29;20464;-74
2024/01/16 10:00:11;;;;;;;5.33;3.30;;;;;;;17.55;46.96;99852.19;4897695;29;20912;-75
2024/01/16 10:02:42;;;;;;;5.70;3.30;;;;;;;17.53;46.99;99848.09;4913518;29;20507;-74
2024/01/16 10:05:09;;;;;;;5.23;3.40;;;;;;;17.59;46.69;99850.22;4913681;29;20523;-74
2024/01/16 10:07:38;;;;;;;3.60;2.60;;;;;;;17.60;46.70;99856.78;4916321;29;20491;-74
2024/01/16 10:10:04;;;;;;;5.60;3.27;;;;;;;17.65;46.24;99857.25;4901955;29;20454;-74
2024/01/16 10:12:30;;;;;;;4.30;2.87;;;;;;;17.57;46.88;99852.66;4900568;29;20455;-74
2024/01/16 10:14:56;;;;;;;4.90;2.97;;;;;;;17.57;46.98;99855.50;4889949;29;20212;-74
2024/01/16 10:17:21;;;;;;;4.33;2.60;;;;;;;17.59;46.62;99853.09;4900191;29;20195;-74
2024/01/16 10:19:52;;;;;;;5.63;3.17;;;;;;;17.57;47.38;99846.09;4884682;29;20207;-74
2024/01/16 10:22:22;;;;;;;3.70;2.50;;;;;;;17.58;47.01;99833.47;4912353;29;20716;-74
2024/01/16 10:24:48;;;;;;;7.90;3.03;;;;;;;17.60;46.88;99836.78;4884235;29;20567;-71
2024/01/16 10:27:15;;;;;;;4.90;3.00;;;;;;;17.62;47.50;99831.50;4899969;29;20952;-70
2024/01/16 10:29:54;;;;;;;4.53;3.00;;;;;;;17.67;47.44;99820.59;4900002;29;20547;-70
2024/01/16 10:32:30;;;;;;;5.20;3.33;;;;;;;17.61;47.54;99813.53;4906229;29;20559;-71
2024/01/16 10:35:12;;;;;;;5.23;2.90;;;;;;;17.63;47.12;99816.03;4883895;29;20467;-70
2024/01/16 10:37:50;;;;;;;4.87;3.00;;;;;;;17.65;47.32;99814.41;4897098;29;21148;-69
2024/01/16 10:40:16;;;;;;;4.80;2.83;;;;;;;17.67;47.03;99816.91;4897519;29;20456;-71
2024/01/16 10:42:42;;;;;;;4.77;2.93;;;;;;;17.77;46.28;99808.50;4896207;29;21023;-70
2024/01/16 10:45:08;;;;;;;4.73;2.90;;;;;;;17.74;46.86;99806.41;4912461;29;20547;-69
2024/01/16 10:47:36;;;;;;;4.83;3.20;;;;;;;17.74;46.63;99806.41;4921106;29;20211;-70
2024/01/16 10:50:05;;;;;;;4.83;2.90;;;;;;;17.77;46.40;99807.66;4916306;29;20322;-70
2024/01/16 10:52:30;;;;;;;4.35;2.80;;;;;;;17.80;46.54;99813.41;4940398;29;20472;-71
2024/01/16 10:54:57;;;;;;;3.50;2.47;;;;;;;17.81;46.73;99802.81;4895545;29;20451;-70
2024/01/16 10:57:24;;;;;;;4.47;2.73;;;;;;;17.78;46.63;99798.72;4896292;29;20934;-71
2024/01/16 10:59:56;;;;;;;5.20;3.27;;;;;;;17.81;46.94;99794.25;4896148;29;20467;-70
2024/01/16 11:02:21;;;;;;;3.57;2.50;;;;;;;17.82;46.91;99791.00;4916782;29;20515;-70
2024/01/16 11:04:48;;;;;;;4.37;2.80;;;;;;;17.80;46.91;99789.75;4911065;29;20447;-69
2024/01/16 11:07:13;;;;;;;3.90;2.67;;;;;;;17.83;46.50;99806.09;4930730;29;20203;-69
2024/01/16 11:09:39;;;;;;;3.63;2.27;;;;;;;17.81;46.80;99797.09;4931212;29;21073;-70
2024/01/16 11:12:05;;;;;;;3.60;2.50;;;;;;;17.87;46.67;99786.97;4926911;29;20231;-70
2024/01/16 11:14:30;;;;;;;3.87;2.60;;;;;;;17.86;46.59;99785.34;4927809;29;21206;-70
2024/01/16 11:16:56;;;;;;;3.33;2.20;;;;;;;17.85;46.52;99775.94;4899377;29;20298;-70
2024/01/16 11:19:21;;;;;;;4.50;3.10;;;;;;;17.83;46.57;99771.81;4885147;29;20271;-70
2024/01/16 11:21:46;;;;;;;4.03;2.80;;;;;;;17.84;46.67;99768.59;4898718;29;20210;-69
2024/01/16 11:24:12;;;;;;;3.50;2.40;;;;;;;17.84;46.97;99765.75;4913731;29;20227;-70
2024/01/16 11:26:41;;;;;;;4.60;2.60;;;;;;;17.83;46.50;99761.25;4894092;29;20294;-70
2024/01/16 11:29:28;;;;;;;3.70;2.60;;;;;;;17.84;46.98;99760.03;4898438;29;20206;-70